METAR Formatted Surface Weather Observation
Issued by NWS

Home | Current Version | Previous Version | Text Only | Print | Product List | Glossary On
Versions: 1 2
780
SAUS44 KMOB 232058
MTRPRN
METAR KPRN 232056Z AUTO 29009KT 10SM CLR 34/17 A2998 RMK AO2 SLP146
T03440172 56018



USA.gov is the U.S. government's official web portal to all federal, state and local government web resources and services.